Latest Weather Observations for Sydney Airport

IDN60801

Issued at 5:03 pm EDT Wednesday 28 February 2024 (issued every 10 minutes, with the page automatically refreshed every 10 minutes)

About weather observations | Map of weather stations | Latest weather observations for NSW | Other Formats
Station Details ID: 066037 Name: SYDNEY AIRPORT AMO Lat: -33.95 Lon: 151.17 Height: 6.0 m
Data from the previous 72 hours. | See also: Recent months at Sydney Airport
Date/Time
EDT
Temp
°C
App
Temp
°C
Dew
Point
°C
Rel
Hum
%
Delta-T
°C
Wind Press
QNH
hPa
Press
MSL
hPa
Rain since
9am
mm
Dir  Spd
km/h
Gust
km/h
Spd
kts
Gust
kts
28/04:30pm 28.4 24.5 21.2 65 4.8 NNE 43 54 23 29 1015.8 1015.8 0.0
28/04:00pm 28.8 25.3 21.1 63 5.1 NNE 41 50 22 27 1015.9 1015.9 0.0
28/03:30pm 28.6 25.6 20.6 62 5.3 NNE 37 48 20 26 1016.2 1016.2 0.0
28/03:00pm 28.2 24.9 20.0 61 5.4 NNE 37 46 20 25 1016.5 1016.5 0.0
28/02:30pm 29.0 26.4 20.7 61 5.5 NNE 35 44 19 24 1017.0 1017.0 0.0
28/02:00pm 28.6 26.3 20.6 62 5.3 NE 33 41 18 22 1017.4 1017.4 0.0
28/01:30pm 27.6 25.2 19.9 63 5.0 NE 32 41 17 22 1017.7 1017.7 0.0
28/01:00pm 28.0 25.2 20.3 63 5.0 NNE 35 43 19 23 1017.8 1017.8 0.0
28/12:30pm 27.5 24.8 19.6 62 5.1 NNE 33 43 18 23 1018.1 1018.1 0.0
28/12:00pm 27.0 24.4 19.4 63 4.9 NE 32 41 17 22 1018.6 1018.6 0.0
28/11:30am 26.8 24.4 19.9 66 4.5 NNE 32 39 17 21 1018.9 1018.9 0.0
28/11:00am 27.4 24.9 20.2 65 4.7 NNE 33 43 18 23 1019.3 1019.3 0.0
28/10:30am 27.2 24.6 20.0 64 4.7 NNE 33 41 18 22 1019.5 1019.5 0.0
28/10:00am 26.2 24.1 19.8 68 4.1 NNE 30 37 16 20 1019.7 1019.7 0.0
28/09:30am 26.1 24.4 19.7 68 4.1 NNE 28 35 15 19 1019.7 1019.7 0.0
28/09:00am 26.1 24.7 19.7 68 4.1 NNE 26 33 14 18 1019.7 1019.7 0.0
28/08:30am 25.4 26.1 20.4 74 3.3 NNE 17 20 9 11 1019.6 1019.6 0.0
28/08:00am 24.5 27.1 20.4 78 2.7 N 7 9 4 5 1019.4 1019.4 0.0
28/07:30am 23.8 25.9 20.1 80 2.4 WNW 9 15 5 8 1019.2 1019.2 0.0
28/07:00am 23.4 25.8 20.0 81 2.2 WNW 7 9 4 5 1018.9 1018.9 0.0
28/06:30am 23.1 26.9 20.1 83 1.9 CALM 0 0 0 0 1018.5 1018.5 0.0
28/06:00am 21.9 25.4 19.5 86 1.5 CALM 0 0 0 0 1018.3 1018.3 0.0
28/05:30am 22.1 23.9 19.6 86 1.6 NW 9 9 5 5 1018.2 1018.2 0.0
28/05:00am 21.8 24.0 19.5 87 1.5 NW 7 9 4 5 1018.1 1018.1 0.0
28/04:30am 21.7 23.9 19.3 86 1.5 NW 6 7 3 4 1018.0 1018.0 0.0
28/04:00am 22.1 24.3 19.6 86 1.6 NW 7 9 4 5 1018.1 1018.1 0.0
28/03:30am 21.8 23.9 19.4 86 1.5 NW 7 9 4 5 1018.1 1018.1 0.0
28/03:00am 21.6 23.7 19.3 87 1.5 NW 7 9 4 5 1018.3 1018.3 0.0
28/02:30am 21.6 23.3 19.3 87 1.5 NW 9 13 5 7 1018.5 1018.5 0.0
28/02:00am 22.0 23.3 19.4 85 1.7 NW 11 13 6 7 1018.7 1018.7 0.0
28/01:30am 22.2 23.9 19.4 84 1.8 NW 9 11 5 6 1018.9 1018.9 0.0
28/01:00am 22.6 24.0 19.6 83 1.9 NNW 11 13 6 7 1019.0 1019.0 0.0
28/12:30am 22.7 24.1 19.5 82 2.0 NNW 11 15 6 8 1019.3 1019.3 0.0
28/12:00am 23.0 24.6 19.2 79 2.4 N 9 11 5 6 1019.4 1019.4 0.0
 
Date/Time
EDT
Temp
°C
App
Temp
°C
Dew
Point
°C
Rel
Hum
%
Delta-T
°C
Wind Press
QNH
hPa
Press
MSL
hPa
Rain since
9am
mm
Dir  Spd
km/h
Gust
km/h
Spd
kts
Gust
kts
27/11:30pm 23.4 25.2 19.5 79 2.5 N 9 11 5 6 1019.5 1019.5 0.0
27/11:00pm 23.0 25.5 19.8 82 2.0 NNE 6 9 3 5 1019.7 1019.7 0.0
27/10:30pm 23.0 24.7 19.4 80 2.3 NE 9 11 5 6 1019.7 1019.7 0.0
27/10:00pm 23.0 24.6 19.2 79 2.4 NNE 9 13 5 7 1019.8 1019.8 0.0
27/09:30pm 23.8 25.1 19.3 76 2.9 N 11 15 6 8 1019.7 1019.7 0.0
27/09:00pm 23.7 24.5 19.0 75 3.0 N 13 15 7 8 1019.3 1019.3 0.0
27/08:30pm 23.4 24.8 18.7 75 3.0 NNE 9 11 5 6 1019.1 1019.1 0.0
27/08:00pm 23.8 24.8 18.7 73 3.2 NNE 11 15 6 8 1018.7 1018.7 0.0
27/07:30pm 23.2 23.3 18.3 74 3.1 NNE 15 20 8 11 1018.3 1018.3 0.0
27/07:00pm 23.4 23.7 17.8 71 3.5 NE 13 17 7 9 1018.0 1018.0 0.0
27/06:30pm 23.4 24.3 18.3 73 3.2 NE 11 15 6 8 1018.1 1018.1 0.0
27/06:00pm 23.7 24.5 18.1 71 3.5 ENE 11 17 6 9 1018.1 1018.1 0.0
27/05:30pm 23.3 23.5 17.7 71 3.5 N 13 15 7 8 1018.2 1018.2 0.0
27/05:00pm 23.2 23.2 17.2 69 3.7 ENE 13 17 7 9 1018.0 1018.0 0.0
27/04:30pm 23.9 24.1 17.6 68 3.9 NE 13 17 7 9 1018.1 1018.1 0.0
27/04:00pm 23.6 23.3 17.3 67 3.9 NE 15 20 8 11 1018.1 1018.1 0.0
27/03:30pm 23.6 23.0 17.6 69 3.7 NE 17 24 9 13 1018.1 1018.1 0.0
27/03:00pm 23.7 23.2 17.7 69 3.7 NE 17 24 9 13 1018.3 1018.3 0.0
27/02:30pm 23.8 23.3 17.8 69 3.7 ENE 17 22 9 12 1018.6 1018.6 0.0
27/02:00pm 23.6 23.7 18.3 72 3.3 ENE 15 20 8 11 1018.7 1018.7 0.0
27/01:30pm 23.1 22.9 18.4 75 3.0 ENE 17 26 9 14 1018.8 1018.8 0.0
27/01:00pm 22.6 24.7 19.4 82 2.0 NNE 7 9 4 5 1019.1 1019.1 0.0
27/12:30pm 21.4 22.8 18.6 84 1.8 SSW 9 11 5 6 1019.2 1019.2 0.0
27/12:00pm 21.5 22.5 18.7 84 1.8 SW 11 15 6 8 1019.4 1019.4 0.0
27/11:30am 21.2 22.6 18.6 85 1.6 SSW 9 13 5 7 1019.4 1019.4 0.0
27/11:00am 21.4 23.4 18.8 85 1.6 NNE 6 9 3 5 1019.8 1019.8 0.0
27/10:30am 21.0 22.5 18.9 88 1.3 ENE 9 11 5 6 1019.8 1019.8 0.0
27/10:00am 20.8 21.1 18.7 88 1.3 ENE 15 19 8 10 1019.9 1019.9 0.0
27/09:30am 21.7 21.4 19.1 85 1.6 NE 19 26 10 14 1019.8 1019.8 0.0
27/09:07am 21.6 21.7 18.4 82 2.0 NE 15 22 8 12 1019.6 1019.6 0.0
27/09:00am 22.0 21.8 18.4 80 2.2 E 17 28 9 15 1019.4 1019.4 0.0
27/08:30am 22.0 21.4 17.6 76 2.7 E 17 24 9 13 1019.1 1019.1 0.0
27/08:00am 22.8 22.3 17.0 70 3.6 ESE 15 19 8 10 1019.0 1019.0 0.0
27/07:30am 22.1 22.3 17.7 76 2.7 SE 13 17 7 9 1018.5 1018.5 0.0
27/07:00am 22.4 21.4 17.5 74 3.0 SSE 19 24 10 13 1018.3 1018.3 0.0
27/06:30am 22.3 21.2 16.3 69 3.6 SE 17 20 9 11 1018.2 1018.2 0.0
27/06:00am 22.4 22.2 16.7 70 3.5 SE 13 19 7 10 1017.8 1017.8 0.0
27/05:30am 22.3 21.8 16.8 71 3.4 SE 15 19 8 10 1018.0 1018.0 0.0
27/05:00am 22.4 20.6 16.0 67 3.9 SE 20 26 11 14 1017.6 1017.6 0.0
27/04:30am 22.3 20.8 15.4 65 4.1 SE 17 24 9 13 1017.8 1017.8 0.0
27/04:00am 22.3 20.5 15.6 66 4.0 SE 19 26 10 14 1017.5 1017.5 0.0
27/03:30am 22.2 21.0 16.2 69 3.6 SE 17 20 9 11 1017.7 1017.7 0.0
27/03:00am 22.2 20.7 16.7 71 3.3 SSE 20 26 11 14 1017.7 1017.7 0.0
27/02:30am 22.2 20.9 16.9 72 3.2 SSE 19 26 10 14 1018.1 1018.1 0.0
27/02:00am 22.1 20.7 17.0 73 3.1 SSE 20 26 11 14 1018.4 1018.4 0.0
27/01:30am 21.9 20.2 17.1 74 2.9 SSE 22 28 12 15 1018.5 1018.5 0.0
27/01:00am 22.2 20.4 17.8 76 2.7 SSE 24 33 13 18 1018.8 1018.8 0.0
27/12:30am 22.3 20.1 17.9 76 2.7 SSE 26 33 14 18 1019.0 1019.0 0.0
27/12:00am 22.2 20.0 17.8 76 2.7 SSE 26 32 14 17 1018.9 1018.9 0.0
 
Date/Time
EDT
Temp
°C
App
Temp
°C
Dew
Point
°C
Rel
Hum
%
Delta-T
°C
Wind Press
QNH
hPa
Press
MSL
hPa
Rain since
9am
mm
Dir  Spd
km/h
Gust
km/h
Spd
kts
Gust
kts
26/11:30pm 22.4 20.3 18.0 76 2.7 SSE 26 32 14 17 1019.1 1019.1 0.0
26/11:00pm 22.3 20.1 17.9 76 2.7 SE 26 33 14 18 1018.8 1018.8 0.0
26/10:30pm 22.4 19.3 18.4 78 2.5 SE 32 37 17 20 1018.9 1018.9 0.0
26/10:00pm 22.7 20.2 18.0 75 2.9 SSE 28 35 15 19 1018.9 1018.9 0.0
26/09:30pm 23.2 21.0 18.7 76 2.8 SSE 28 33 15 18 1018.4 1018.4 0.0
26/09:00pm 22.6 19.7 17.9 75 2.9 SSE 30 37 16 20 1018.3 1018.3 0.0
26/08:30pm 22.9 20.3 18.7 77 2.7 SSE 30 37 16 20 1017.9 1017.9 0.0
26/08:00pm 22.8 20.2 18.6 77 2.6 SSE 30 37 16 20 1017.4 1017.4 0.0
26/07:30pm 23.2 20.1 18.9 77 2.7 SSE 33 39 18 21 1016.9 1016.9 0.0
26/07:00pm 23.2 20.4 19.4 79 2.4 SSE 33 41 18 22 1016.4 1016.4 0.0
26/06:30pm 23.4 20.8 19.8 80 2.3 SSE 33 44 18 24 1016.1 1016.1 0.0
26/06:00pm 22.9 20.9 19.9 83 1.9 SSE 30 41 16 22 1015.7 1015.7 0.0
26/05:30pm 23.5 19.9 20.2 82 2.1 SSE 39 50 21 27 1015.2 1015.2 0.0
26/05:00pm 23.2 18.8 20.2 83 1.9 SSE 43 52 23 28 1014.9 1014.9 0.0
26/04:30pm 23.9 21.4 20.8 83 2.0 SSE 35 44 19 24 1014.9 1014.9 0.0
26/04:00pm 23.8 21.6 20.3 81 2.3 SSE 32 39 17 21 1015.0 1015.0 0.0
26/03:30pm 23.5 21.0 20.2 82 2.1 S 33 41 18 22 1015.0 1015.0 0.0
26/03:00pm 23.9 21.8 20.6 82 2.1 S 32 43 17 23 1015.1 1015.1 0.0
26/02:30pm 23.5 21.2 20.2 82 2.1 S 32 41 17 22 1015.2 1015.2 0.0
26/02:00pm 23.9 21.9 20.0 79 2.5 S 30 39 16 21 1015.1 1015.1 0.0
26/01:30pm 24.1 21.5 19.8 77 2.8 S 33 41 18 22 1015.2 1015.2 0.0
26/01:00pm 23.7 20.6 19.6 78 2.6 S 35 48 19 26 1015.1 1015.1 0.0
26/12:47pm 24.0 20.9 19.7 77 2.8 S 35 54 19 29 1015.2 1015.2 0.0
26/12:30pm 23.8 21.1 19.7 78 2.6 S 33 41 18 22 1015.2 1015.2 0.0
26/12:04pm 23.6 20.6 19.9 80 2.4 S 35 54 19 29 1015.3 1015.3 0.0
26/12:00pm 23.7 20.8 20.0 80 2.4 S 35 44 19 24 1015.3 1015.3 0.0
26/11:30am 24.6 21.9 19.2 72 3.5 SSE 32 46 17 25 1015.1 1015.1 0.0
26/11:00am 25.0 24.7 18.2 66 4.3 SW 17 28 9 15 1014.8 1014.8 0.0
26/10:30am 26.0 26.9 18.4 63 4.8 NW 11 17 6 9 1014.0 1014.0 0.0
26/10:00am 24.7 26.3 18.2 67 4.1 WNW 7 11 4 6 1014.0 1014.0 0.0
26/09:30am 23.8 24.1 17.8 69 3.7 W 13 17 7 9 1013.8 1013.8 0.0
26/09:00am 23.8 24.4 18.7 73 3.2 WNW 13 17 7 9 1013.8 1013.8 0.0
26/08:30am 22.7 23.0 18.7 78 2.5 NW 15 20 8 11 1013.7 1013.7 0.0
26/08:00am 21.7 21.8 18.3 81 2.1 NW 15 22 8 12 1013.7 1013.7 0.0
26/07:30am 20.9 21.3 18.1 84 1.7 NW 13 19 7 10 1013.6 1013.6 0.0
26/07:00am 20.1 20.2 17.5 85 1.6 NW 13 17 7 9 1013.4 1013.4 0.0
26/06:30am 20.6 21.2 17.8 84 1.7 WNW 11 17 6 9 1012.8 1012.8 0.0
26/06:00am 21.0 21.7 18.0 83 1.9 NNW 11 11 6 6 1012.4 1012.4 0.0
26/05:30am 20.9 21.6 17.9 83 1.9 NW 11 11 6 6 1012.4 1012.4 0.0
26/05:00am 20.7 21.7 17.7 83 1.8 NW 9 11 5 6 1012.5 1012.5 0.0
26/04:30am 21.1 22.5 17.9 82 2.0 N 7 7 4 4 1012.4 1012.4 0.0
26/04:00am 21.0 22.5 18.0 83 1.9 N 7 9 4 5 1012.2 1012.2 0.0
26/03:30am 21.0 22.5 18.0 83 1.9 NNE 7 9 4 5 1012.5 1012.5 0.0
26/03:00am 20.8 22.3 17.6 82 2.0 NE 6 7 3 4 1013.0 1013.0 0.0
26/02:30am 20.9 21.8 17.5 81 2.1 NE 9 11 5 6 1013.1 1013.1 0.0
26/02:00am 22.0 24.9 18.2 79 2.4 CALM 0 0 0 0 1013.4 1013.4 0.0
26/01:30am 22.0 24.8 18.0 78 2.5 CALM 0 4 0 2 1013.5 1013.5 0.0
26/01:00am 22.3 23.4 18.1 77 2.6 NNW 9 9 5 5 1013.6 1013.6 0.0
26/12:30am 22.2 22.9 18.0 77 2.6 NNW 11 13 6 7 1013.9 1013.9 0.0
26/12:00am 22.4 22.8 18.2 77 2.6 NW 13 15 7 8 1014.1 1014.1 0.0
 
Date/Time
EDT
Temp
°C
App
Temp
°C
Dew
Point
°C
Rel
Hum
%
Delta-T
°C
Wind Press
QNH
hPa
Press
MSL
hPa
Rain since
9am
mm
Dir  Spd
km/h
Gust
km/h
Spd
kts
Gust
kts
25/11:30pm 22.5 22.0 17.8 75 2.9 NNW 17 22 9 12 1014.2 1014.2 0.0
25/11:00pm 23.3 22.9 18.0 72 3.3 N 17 20 9 11 1014.2 1014.2 0.0
25/10:30pm 23.6 22.5 17.8 70 3.6 N 20 28 11 15 1014.4 1014.4 0.0
25/10:00pm 23.7 23.2 17.9 70 3.6 NNE 17 20 9 11 1014.4 1014.4 0.0
25/09:30pm 24.0 23.1 18.2 70 3.6 NNE 20 26 11 14 1014.4 1014.4 0.0
25/09:00pm 24.2 23.5 18.2 69 3.8 NNE 19 24 10 13 1014.3 1014.3 0.0
25/08:30pm 24.1 23.2 18.1 69 3.8 NNE 20 28 11 15 1014.0 1014.0 0.0
25/08:00pm 24.5 23.6 18.2 68 4.0 NNE 20 28 11 15 1013.8 1013.8 0.0
25/07:30pm 24.6 23.1 17.6 65 4.4 NE 22 28 12 15 1013.6 1013.6 0.0
25/07:00pm 24.9 22.2 17.6 64 4.6 NNE 28 35 15 19 1013.4 1013.4 0.0
25/06:30pm 25.4 22.7 17.6 62 4.9 NE 28 33 15 18 1013.3 1013.3 0.0
25/06:00pm 25.1 23.1 17.3 62 4.9 NE 24 32 13 17 1013.3 1013.3 0.0
25/05:30pm 25.9 23.1 17.3 59 5.4 NE 28 33 15 18 1013.0 1013.0 0.0

Other formats

Comma delimited format used in spreadsheet applications
http://www.bom.gov.au/fwo/IDN60801/IDN60801.94767.axf

JavaScript Object Notation format (JSON) in row-major order
http://www.bom.gov.au/fwo/IDN60801/IDN60801.94767.json

Data quality

Most of these data are generated automatically and are frequently updated. Quality checks on data are not normally performed. It is possible for incorrect values to appear. Refer to information at About Latest Weather Observations and please check the disclaimer before using these data.